• Join FlightAware (Why Join?)
  • Login
  • US Flag 
Gobble Gobble! 
03:28AM EST


 

Airport Tracker/Info


-or-


 

Live Flight TrackerFlight Track Log ✈ UAL4476 ✈ 16-Apr-2013 ✈ KCLE - KBOS

Flight Track Log - Related Links

Times and Time Zones

All times are in EDT time to prevent confusion due to time zone crossing. See the UAL4476 flight status page for this flight to view local times or setup timezone preferences in your user account.

Time Position Orientation Groundspeed Altitude Reporting Facility
EDT Latitude Longitude Course Direction KTS MPH feet Rate Location/Type
08:53AM 41.3939 -81.8814 287° West 169 194 1,700  Level Cleveland Center
08:53AM 41.4019 -81.9175 287° West 182 209 3,000 2,160 Climbing Cleveland Center
08:54AM 41.4492 -81.9711 320° Northwest 239 275 5,200 2,040 Climbing Cleveland Center
08:56AM 41.5183 -81.9392 19° North 243 280 7,300 2,040 Climbing Cleveland Center
08:57AM 41.5714 -81.8489 52° Northeast 269 310 9,500 1,920 Climbing Cleveland Center
08:58AM 41.6225 -81.7636 51° Northeast 309 356 11,200 1,500 Climbing Cleveland Center
08:59AM 41.6425 -81.6361 78° East 323 372 12,500 1,200 Climbing Cleveland Center
09:00AM 41.6708 -81.5006 74° East 359 413 13,600 1,200 Climbing Cleveland Center
09:01AM 41.7133 -81.3675 67° East 377 434 15,000 1,200 Climbing Cleveland Center
09:02AM 41.7269 -81.2092 83° East 383 441 16,100 1,020 Climbing Cleveland Center
09:03AM 41.7089 -81.0617 99° East 388 447 17,100 960 Climbing Cleveland Center
09:04AM 41.6906 -80.9083 99° East 405 466 18,100 1,140 Climbing Cleveland Center
09:05AM 41.6742 -80.7556 98° East 412 474 19,400 1,260 Climbing Cleveland Center
09:06AM 41.6556 -80.5969 99° East 417 480 20,700 1,260 Climbing Cleveland Center
09:07AM 41.6389 -80.4414 98° East 425 489 22,000 1,200 Climbing Cleveland Center
09:08AM 41.6239 -80.2803 97° East 430 495 23,100 1,020 Climbing Cleveland Center
09:09AM 41.6108 -80.1167 96° East 430 495 24,100 1,200 Climbing Cleveland Center
09:10AM 41.5997 -79.9556 95° East 435 501 25,500 1,500 Climbing Cleveland Center
09:11AM 41.5944 -79.7947 92° East 435 501 27,100 1,320 Climbing Cleveland Center
09:12AM 41.5975 -79.6364 88° East 430 495 28,200 960 Climbing Cleveland Center
09:13AM 41.6025 -79.4753 88° East 430 495 29,100 900 Climbing Cleveland Center
09:14AM 41.6047 -79.3114 89° East 430 495 30,100 900 Climbing Cleveland Center
09:15AM 41.6133 -79.1444 86° East 435 501 31,000 420 Climbing Cleveland Center
09:16AM 41.6614 -79.0072 65° Northeast 440 506 31,000  Level Cleveland Center
09:17AM 41.7319 -78.8358 61° Northeast 452 520 31,000  Level Cleveland Center
09:18AM 41.7983 -78.6753 61° Northeast 468 539 31,000  Level Cleveland Center
09:19AM 41.8619 -78.5089 63° Northeast 481 554 31,000  Level Cleveland Center
09:20AM 41.9278 -78.3475 61° Northeast 481 554 31,000  Level Cleveland Center
09:21AM 41.9794 -78.2172 62° Northeast 481 554 31,000  Level Cleveland Center
09:22AM 42.0506 -78.0383 62° Northeast 486 559 31,000  Level Cleveland Center
09:23AM 42.1156 -77.8708 62° Northeast 486 559 31,000  Level Cleveland Center
09:24AM 42.1806 -77.7083 62° Northeast 486 559 31,000  Level Cleveland Center
09:25AM 42.2450 -77.5425 62° Northeast 486 559 31,000  Level Cleveland Center
09:27AM 42.3825 -77.1828 63° Northeast 510 587 31,000  Level Boston Center
09:28AM 42.4372 -77.0208 65° Northeast 494 568 31,000  Level Boston Center
09:29AM 42.4614 -76.8283 80° East 470 541 31,000  Level Boston Center
09:30AM 42.4808 -76.6467 82° East 470 541 31,000  Level Boston Center
09:31AM 42.5000 -76.4647 82° East 475 547 31,000  Level Boston Center
09:32AM 42.5208 -76.2800 81° East 482 555 31,000  Level Boston Center
09:33AM 42.5336 -76.1514 82° East 487 560 31,000  Level Boston Center
09:34AM 42.5550 -75.9325 82° East 492 566 31,000  Level Boston Center
09:35AM 42.5731 -75.7475 82° East 492 566 31,000 -60 Level Boston Center
09:36AM 42.5908 -75.5650 82° East 492 566 30,900  Descending Boston Center
09:37AM 42.5603 -75.3803 103° East 492 566 31,000  Climbing Boston Center
09:38AM 42.4744 -75.2383 129° Southeast 468 539 31,000  Level Boston Center
09:39AM 42.3967 -75.0856 125° Southeast 475 547 31,000  Level Boston Center
09:40AM 42.3903 -74.9028 93° East 470 541 31,000  Level Boston Center
09:41AM 42.4025 -74.7175 85° East 475 547 31,000  Level Boston Center
09:42AM 42.4125 -74.5322 86° East 480 552 31,000  Level Boston Center
09:43AM 42.4281 -74.3500 83° East 485 558 31,000 -720 Level Boston Center
09:44AM 42.4394 -74.1675 85° East 485 558 29,600 -1,020 Descending Boston Center
09:45AM 42.4503 -73.9850 85° East 485 558 29,000 -360 Descending Boston Center
09:46AM 42.4608 -73.8050 85° East 480 552 29,000  Level Boston Center
09:47AM 42.4714 -73.6194 86° East 480 552 29,000  Level Boston Center
09:48AM 42.4814 -73.4339 86° East 480 552 29,000 -300 Level Boston Center
09:49AM 42.4933 -73.2397 85° East 497 572 28,500 -720 Descending Boston Center
09:50AM 42.5008 -73.0511 87° East 497 572 27,600 -960 Descending Boston Center
09:51AM 42.5100 -72.8794 86° East 480 552 26,600 -960 Descending Boston Center
09:52AM 42.5189 -72.7019 86° East 475 547 25,700 -1,320 Descending Boston Center
09:53AM 42.5253 -72.5611 86° East 470 541 24,000 -2,400 Descending Boston Center
09:54AM 42.5339 -72.3528 87° East 470 541 20,900 -2,820 Descending Boston Center
09:55AM 42.5397 -72.1808 87° East 433 498 18,400 -2,040 Descending Boston Center
09:56AM 42.5436 -72.0428 88° East 406 467 16,800 -2,040 Descending Boston Center
09:57AM 42.5303 -71.8794 96° East 394 453 14,400 -2,220 Descending Boston Center
09:58AM 42.5317 -71.7525 89° East 381 438 12,300 -1,800 Descending Boston Center
09:59AM 42.5453 -71.6144 82° East 348 400 10,900 -840 Descending Boston Center
09:59AM 42.5500 -71.5333 85° East 310 357 11,000 -840 Climbing KA90
10:00AM 42.5667 -71.4167 79° East 312 359 9,600 -1,500 Descending KA90
10:01AM 42.5667 -71.3167 90° East 295 339 8,100 -1,620 Descending KA90
10:02AM 42.5667 -71.2167 90° East 284 327 6,500 -1,860 Descending KA90
10:03AM 42.5500 -71.1000 101° East 277 319 4,600 -1,680 Descending KA90
10:04AM 42.5333 -71.0167 105° East 254 292 3,000 -900 Descending KA90
10:05AM 42.5000 -70.9500 124° Southeast 175 201 2,800 -600 Descending KA90
10:06AM 42.4500 -70.9500 180° South 155 178 1,800 -900 Descending KA90
10:07AM 42.4167 -70.9833 216° Southwest 122 140 1,100 -660 Descending KA90
10:08AM 42.4000 -70.9833 180° South 128 147 500 2,880 Descending KA90
10:11AM 42.3208 -71.0278 203° Southwest 125 144 11,000 4,320 Climbing Boston Center